PWSweather.com
Personal Weather Stations
Station Observations
GEELONGWX1
Bell Post Hill, GeelongAU

Bell Post HillGeelongAU

Lat: -38.101, Lon: 144.326

Elevation: 204

Station Type: Davis Vantage Pro2

http://www.geelongweather.com

High Low Average
Temperature 76.4°F24.7°F 47.6°F8.7°F 59.6°F15.3°F
Dew Point 56.6°F13.7°F 41.4°F5.2°F 47.7°F8.7°F
Winds 16.1 mph S25.9 mph S Calm Calm 3.3 mph 5.3 mph
Wind Gusts 21.9 mph35.2 mph -- 6.0 mph9.7 mph
Humidity 79% 39% 67%
Pressure 30.02 in1016.60 in 29.77 in1008.10 in -
Precipitation 0.25 in6.40 in - -
Hour Temp Dew Point Humidity Winds Wind Gusts Pressure Precip Precip Rate Daily Precip Total
12:00 AM 56.0°F13.3°C 46.7°F8.2°C 71% Calm Calm -- 29.81 in1009.5 mb 0.00 in0.0 mm 0.00 in/hr0.0 mm/hr 0.00 in0.0 mm
12:10 AM 55.9°F13.3°C 46.6°F8.1°C 71% Calm Calm -- 29.80 in1009.1 mb 0.00 in0.0 mm 0.00 in/hr0.0 mm/hr 0.00 in0.0 mm
12:20 AM 55.9°F13.3°C 46.6°F8.1°C 71% Calm Calm -- 29.81 in1009.5 mb 0.00 in0.0 mm 0.00 in/hr0.0 mm/hr 0.00 in0.0 mm
12:30 AM 56.0°F13.3°C 46.7°F8.2°C 71% Calm Calm -- 29.81 in1009.5 mb 0.00 in0.0 mm 0.00 in/hr0.0 mm/hr 0.00 in0.0 mm
12:40 AM 55.9°F13.3°C 46.6°F8.1°C 71% Calm Calm -- 29.81 in1009.5 mb 0.00 in0.0 mm 0.00 in/hr0.0 mm/hr 0.00 in0.0 mm
12:50 AM 55.7°F13.2°C 46.4°F8.0°C 71% Calm Calm -- 29.80 in1009.1 mb 0.00 in0.0 mm 0.00 in/hr0.0 mm/hr 0.00 in0.0 mm
01:00 AM 55.3°F12.9°C 46.1°F7.8°C 71% Calm Calm -- 29.80 in1009.1 mb 0.00 in0.0 mm 0.00 in/hr0.0 mm/hr 0.00 in0.0 mm
01:10 AM 54.9°F12.7°C 45.7°F7.6°C 71% Calm Calm -- 29.80 in1009.1 mb 0.00 in0.0 mm 0.00 in/hr0.0 mm/hr 0.00 in0.0 mm
01:20 AM 54.4°F12.4°C 45.2°F7.3°C 71% Calm Calm -- 29.80 in1009.1 mb 0.00 in0.0 mm 0.00 in/hr0.0 mm/hr 0.00 in0.0 mm
01:30 AM 54.0°F12.2°C 45.2°F7.3°C 72% Calm Calm -- 29.80 in1009.1 mb 0.00 in0.0 mm 0.00 in/hr0.0 mm/hr 0.00 in0.0 mm
01:40 AM 53.5°F11.9°C 44.7°F7.1°C 72% Calm Calm -- 29.79 in1008.8 mb 0.00 in0.0 mm 0.00 in/hr0.0 mm/hr 0.00 in0.0 mm
01:50 AM 53.2°F11.8°C 44.4°F6.9°C 72% Calm Calm -- 29.78 in1008.5 mb 0.00 in0.0 mm 0.00 in/hr0.0 mm/hr 0.00 in0.0 mm
02:00 AM 52.8°F11.6°C 44.4°F6.9°C 73% Calm Calm -- 29.78 in1008.5 mb 0.00 in0.0 mm 0.00 in/hr0.0 mm/hr 0.00 in0.0 mm
02:10 AM 52.4°F11.3°C 44.0°F6.7°C 73% Calm Calm -- 29.78 in1008.5 mb 0.00 in0.0 mm 0.00 in/hr0.0 mm/hr 0.00 in0.0 mm
02:20 AM 52.0°F11.1°C 43.6°F6.4°C 73% Calm Calm -- 29.78 in1008.5 mb 0.00 in0.0 mm 0.00 in/hr0.0 mm/hr 0.00 in0.0 mm
02:30 AM 51.7°F10.9°C 43.7°F6.5°C 74% Calm Calm -- 29.78 in1008.5 mb 0.00 in0.0 mm 0.00 in/hr0.0 mm/hr 0.00 in0.0 mm
02:40 AM 51.5°F10.8°C 43.8°F6.6°C 75% Calm Calm -- 29.78 in1008.5 mb 0.00 in0.0 mm 0.00 in/hr0.0 mm/hr 0.00 in0.0 mm
02:50 AM 51.1°F10.6°C 43.5°F6.4°C 75% Calm Calm -- 29.77 in1008.1 mb 0.00 in0.0 mm 0.00 in/hr0.0 mm/hr 0.00 in0.0 mm
03:00 AM 50.8°F10.4°C 43.2°F6.2°C 75% Calm Calm -- 29.77 in1008.1 mb 0.00 in0.0 mm 0.00 in/hr0.0 mm/hr 0.00 in0.0 mm
03:10 AM 50.4°F10.2°C 43.1°F6.2°C 76% Calm Calm -- 29.77 in1008.1 mb 0.00 in0.0 mm 0.00 in/hr0.0 mm/hr 0.00 in0.0 mm
03:20 AM 50.1°F10.1°C 42.8°F6.0°C 76% Calm Calm -- 29.77 in1008.1 mb 0.00 in0.0 mm 0.00 in/hr0.0 mm/hr 0.00 in0.0 mm
03:30 AM 49.8°F9.9°C 42.5°F5.8°C 76% Calm Calm -- 29.77 in1008.1 mb 0.00 in0.0 mm 0.00 in/hr0.0 mm/hr 0.00 in0.0 mm
03:40 AM 49.6°F9.8°C 42.7°F5.9°C 77% Calm Calm -- 29.77 in1008.1 mb 0.00 in0.0 mm 0.00 in/hr0.0 mm/hr 0.00 in0.0 mm
03:50 AM 49.4°F9.7°C 42.8°F6.0°C 78% 2.3 mph S3.7 kmh S 4.6 mph7.4 kmh 29.77 in1008.1 mb 0.00 in0.0 mm 0.00 in/hr0.0 mm/hr 0.00 in0.0 mm
04:00 AM 49.2°F9.6°C 42.6°F5.9°C 78% 3.5 mph S5.6 kmh S 4.6 mph7.4 kmh 29.77 in1008.1 mb 0.00 in0.0 mm 0.00 in/hr0.0 mm/hr 0.00 in0.0 mm
04:10 AM 48.9°F9.4°C 42.7°F5.9°C 79% 2.3 mph S3.7 kmh S 4.6 mph7.4 kmh 29.78 in1008.5 mb 0.00 in0.0 mm 0.00 in/hr0.0 mm/hr 0.00 in0.0 mm
04:20 AM 48.7°F9.3°C 42.5°F5.8°C 79% 2.3 mph S3.7 kmh S 4.6 mph7.4 kmh 29.78 in1008.5 mb 0.00 in0.0 mm 0.00 in/hr0.0 mm/hr 0.00 in0.0 mm
04:30 AM 48.5°F9.2°C 42.2°F5.7°C 79% 3.5 mph SSW5.6 kmh SSW 3.5 mph5.6 kmh 29.77 in1008.1 mb 0.00 in0.0 mm 0.00 in/hr0.0 mm/hr 0.00 in0.0 mm
04:40 AM 48.2°F9.0°C 42.0°F5.6°C 79% Calm Calm -- 29.77 in1008.1 mb 0.00 in0.0 mm 0.00 in/hr0.0 mm/hr 0.00 in0.0 mm
04:50 AM 48.0°F8.9°C 41.8°F5.4°C 79% Calm Calm -- 29.77 in1008.1 mb 0.00 in0.0 mm 0.00 in/hr0.0 mm/hr 0.00 in0.0 mm
05:00 AM 47.9°F8.8°C 41.7°F5.4°C 79% 1.2 mph SW1.9 kmh SW 3.5 mph5.6 kmh 29.77 in1008.1 mb 0.00 in0.0 mm 0.00 in/hr0.0 mm/hr 0.00 in0.0 mm
05:10 AM 47.8°F8.8°C 41.6°F5.3°C 79% Calm Calm -- 29.77 in1008.1 mb 0.00 in0.0 mm 0.00 in/hr0.0 mm/hr 0.00 in0.0 mm
05:20 AM 47.7°F8.7°C 41.5°F5.3°C 79% Calm Calm -- 29.77 in1008.1 mb 0.00 in0.0 mm 0.00 in/hr0.0 mm/hr 0.00 in0.0 mm
05:30 AM 47.6°F8.7°C 41.4°F5.2°C 79% 3.5 mph SSW5.6 kmh SSW 4.6 mph7.4 kmh 29.77 in1008.1 mb 0.00 in0.0 mm 0.00 in/hr0.0 mm/hr 0.00 in0.0 mm
05:40 AM 47.6°F8.7°C 41.4°F5.2°C 79% 3.5 mph SSW5.6 kmh SSW 5.8 mph9.3 kmh 29.78 in1008.5 mb 0.00 in0.0 mm 0.00 in/hr0.0 mm/hr 0.00 in0.0 mm
05:50 AM 47.8°F8.8°C 41.6°F5.3°C 79% 3.5 mph SSW5.6 kmh SSW 5.8 mph9.3 kmh 29.78 in1008.5 mb 0.00 in0.0 mm 0.00 in/hr0.0 mm/hr 0.00 in0.0 mm
06:00 AM 48.1°F8.9°C 41.6°F5.3°C 78% 4.6 mph S7.4 kmh S 4.6 mph7.4 kmh 29.78 in1008.5 mb 0.00 in0.0 mm 0.00 in/hr0.0 mm/hr 0.00 in0.0 mm
06:10 AM 48.9°F9.4°C 42.3°F5.7°C 78% 3.5 mph SSW5.6 kmh SSW 3.5 mph5.6 kmh 29.78 in1008.5 mb 0.00 in0.0 mm 0.00 in/hr0.0 mm/hr 0.00 in0.0 mm
06:20 AM 50.0°F10.0°C 43.4°F6.3°C 78% 1.2 mph SSW1.9 kmh SSW 3.5 mph5.6 kmh 29.78 in1008.5 mb 0.00 in0.0 mm 0.00 in/hr0.0 mm/hr 0.00 in0.0 mm
06:30 AM 51.3°F10.7°C 44.7°F7.1°C 78% Calm Calm 1.2 mph1.9 kmh 29.78 in1008.5 mb 0.00 in0.0 mm 0.00 in/hr0.0 mm/hr 0.00 in0.0 mm
06:40 AM 54.2°F12.3°C 47.5°F8.6°C 78% 2.3 mph SSW3.7 kmh SSW 4.6 mph7.4 kmh 29.78 in1008.5 mb 0.00 in0.0 mm 0.00 in/hr0.0 mm/hr 0.00 in0.0 mm
06:50 AM 56.1°F13.4°C 49.0°F9.4°C 77% Calm Calm -- 29.78 in1008.5 mb 0.00 in0.0 mm 0.00 in/hr0.0 mm/hr 0.00 in0.0 mm
07:00 AM 57.9°F14.4°C 50.0°F10.0°C 75% 3.5 mph SSW5.6 kmh SSW 4.6 mph7.4 kmh 29.78 in1008.5 mb 0.00 in0.0 mm 0.00 in/hr0.0 mm/hr 0.00 in0.0 mm
07:10 AM 59.2°F15.1°C 50.6°F10.3°C 73% 1.2 mph SW1.9 kmh SW 4.6 mph7.4 kmh 29.78 in1008.5 mb 0.00 in0.0 mm 0.00 in/hr0.0 mm/hr 0.00 in0.0 mm
07:20 AM 60.6°F15.9°C 50.8°F10.4°C 70% 2.3 mph WSW3.7 kmh WSW 4.6 mph7.4 kmh 29.79 in1008.8 mb 0.00 in0.0 mm 0.00 in/hr0.0 mm/hr 0.00 in0.0 mm
07:30 AM 61.8°F16.6°C 50.3°F10.2°C 66% 8.1 mph SW13.0 kmh SW 11.5 mph18.5 kmh 29.79 in1008.8 mb 0.00 in0.0 mm 0.00 in/hr0.0 mm/hr 0.00 in0.0 mm
07:40 AM 63.7°F17.6°C 50.9°F10.5°C 63% 6.9 mph SW11.1 kmh SW 13.8 mph22.2 kmh 29.78 in1008.5 mb 0.00 in0.0 mm 0.00 in/hr0.0 mm/hr 0.00 in0.0 mm
07:50 AM 65.3°F18.5°C 50.2°F10.1°C 58% 4.6 mph SW7.4 kmh SW 5.8 mph9.3 kmh 29.79 in1008.8 mb 0.00 in0.0 mm 0.00 in/hr0.0 mm/hr 0.00 in0.0 mm
08:00 AM 65.8°F18.8°C 52.0°F11.1°C 61% 6.9 mph S11.1 kmh S 10.4 mph16.7 kmh 29.79 in1008.8 mb 0.00 in0.0 mm 0.00 in/hr0.0 mm/hr 0.00 in0.0 mm
08:10 AM 65.6°F18.7°C 50.4°F10.2°C 58% 8.1 mph SW13.0 kmh SW 11.5 mph18.5 kmh 29.80 in1009.1 mb 0.00 in0.0 mm 0.00 in/hr0.0 mm/hr 0.00 in0.0 mm
08:20 AM 66.0°F18.9°C 49.8°F9.9°C 56% 4.6 mph SSW7.4 kmh SSW 8.1 mph13.0 kmh 29.80 in1009.1 mb 0.00 in0.0 mm 0.00 in/hr0.0 mm/hr 0.00 in0.0 mm
08:30 AM 67.0°F19.4°C 49.8°F9.9°C 54% 3.5 mph SSW5.6 kmh SSW 9.2 mph14.8 kmh 29.80 in1009.1 mb 0.00 in0.0 mm 0.00 in/hr0.0 mm/hr 0.00 in0.0 mm
08:40 AM 68.8°F20.4°C 50.0°F10.0°C 51% Calm Calm 8.1 mph13.0 kmh 29.79 in1008.8 mb 0.00 in0.0 mm 0.00 in/hr0.0 mm/hr 0.00 in0.0 mm
08:50 AM 68.4°F20.2°C 49.0°F9.4°C 50% 8.1 mph S13.0 kmh S 15.0 mph24.1 kmh 29.79 in1008.8 mb 0.00 in0.0 mm 0.00 in/hr0.0 mm/hr 0.00 in0.0 mm
09:00 AM 69.6°F20.9°C 49.6°F9.8°C 49% 4.6 mph SSW7.4 kmh SSW 9.2 mph14.8 kmh 29.79 in1008.8 mb 0.00 in0.0 mm 0.00 in/hr0.0 mm/hr 0.00 in0.0 mm
09:10 AM 70.7°F21.5°C 48.3°F9.1°C 45% 5.8 mph SW9.3 kmh SW 12.7 mph20.4 kmh 29.79 in1008.8 mb 0.00 in0.0 mm 0.00 in/hr0.0 mm/hr 0.00 in0.0 mm
09:20 AM 71.4°F21.9°C 49.5°F9.7°C 46% 3.5 mph SW5.6 kmh SW 9.2 mph14.8 kmh 29.79 in1008.8 mb 0.00 in0.0 mm 0.00 in/hr0.0 mm/hr 0.00 in0.0 mm
09:30 AM 71.5°F21.9°C 48.4°F9.1°C 44% 3.5 mph S5.6 kmh S 9.2 mph14.8 kmh 29.79 in1008.8 mb 0.00 in0.0 mm 0.00 in/hr0.0 mm/hr 0.00 in0.0 mm
09:40 AM 71.8°F22.1°C 48.7°F9.3°C 44% 5.8 mph SW9.3 kmh SW 9.2 mph14.8 kmh 29.79 in1008.8 mb 0.00 in0.0 mm 0.00 in/hr0.0 mm/hr 0.00 in0.0 mm
09:50 AM 71.3°F21.8°C 46.3°F7.9°C 41% 5.8 mph S9.3 kmh S 9.2 mph14.8 kmh 29.79 in1008.8 mb 0.00 in0.0 mm 0.00 in/hr0.0 mm/hr 0.00 in0.0 mm
10:00 AM 72.6°F22.6°C 47.6°F8.7°C 41% 3.5 mph SW5.6 kmh SW 20.7 mph33.3 kmh 29.79 in1008.8 mb 0.00 in0.0 mm 0.00 in/hr0.0 mm/hr 0.00 in0.0 mm
10:10 AM 70.7°F21.5°C 46.4°F8.0°C 42% 4.6 mph SSW7.4 kmh SSW 11.5 mph18.5 kmh 29.79 in1008.8 mb 0.00 in0.0 mm 0.00 in/hr0.0 mm/hr 0.00 in0.0 mm
10:20 AM 71.8°F22.1°C 46.8°F8.2°C 41% 4.6 mph SW7.4 kmh SW 8.1 mph13.0 kmh 29.79 in1008.8 mb 0.00 in0.0 mm 0.00 in/hr0.0 mm/hr 0.00 in0.0 mm
10:30 AM 70.7°F21.5°C 46.5°F8.1°C 42% 4.6 mph SSW7.4 kmh SSW 6.9 mph11.1 kmh 29.79 in1008.8 mb 0.00 in0.0 mm 0.00 in/hr0.0 mm/hr 0.00 in0.0 mm
10:40 AM 72.5°F22.5°C 48.1°F8.9°C 42% 1.2 mph SSW1.9 kmh SSW 3.5 mph5.6 kmh 29.79 in1008.8 mb 0.00 in0.0 mm 0.00 in/hr0.0 mm/hr 0.00 in0.0 mm
10:50 AM 72.1°F22.3°C 46.5°F8.1°C 40% 2.3 mph SSW3.7 kmh SSW 4.6 mph7.4 kmh 29.79 in1008.8 mb 0.00 in0.0 mm 0.00 in/hr0.0 mm/hr 0.00 in0.0 mm
11:00 AM 71.0°F21.7°C 46.8°F8.2°C 42% 4.6 mph S7.4 kmh S 13.8 mph22.2 kmh 29.79 in1008.8 mb 0.00 in0.0 mm 0.00 in/hr0.0 mm/hr 0.00 in0.0 mm
11:10 AM 70.9°F21.6°C 47.3°F8.5°C 43% 3.5 mph SW5.6 kmh SW 6.9 mph11.1 kmh 29.78 in1008.5 mb 0.00 in0.0 mm 0.00 in/hr0.0 mm/hr 0.00 in0.0 mm
11:20 AM 70.9°F21.6°C 46.7°F8.2°C 42% 3.5 mph SSW5.6 kmh SSW 11.5 mph18.5 kmh 29.79 in1008.8 mb 0.00 in0.0 mm 0.00 in/hr0.0 mm/hr 0.00 in0.0 mm
11:30 AM 73.4°F23.0°C 48.9°F9.4°C 42% 10.4 mph S16.7 kmh S 15.0 mph24.1 kmh 29.78 in1008.5 mb 0.00 in0.0 mm 0.00 in/hr0.0 mm/hr 0.00 in0.0 mm
11:40 AM 73.9°F23.3°C 48.7°F9.3°C 41% 10.4 mph S16.7 kmh S 17.3 mph27.8 kmh 29.78 in1008.5 mb 0.00 in0.0 mm 0.00 in/hr0.0 mm/hr 0.00 in0.0 mm
11:50 AM 74.8°F23.8°C 48.9°F9.4°C 40% 9.2 mph SSW14.8 kmh SSW 19.6 mph31.5 kmh 29.78 in1008.5 mb 0.00 in0.0 mm 0.00 in/hr0.0 mm/hr 0.00 in0.0 mm
12:00 PM 73.7°F23.2°C 47.9°F8.8°C 40% 2.3 mph SW3.7 kmh SW 13.8 mph22.2 kmh 29.77 in1008.1 mb 0.00 in0.0 mm 0.00 in/hr0.0 mm/hr 0.00 in0.0 mm
12:10 PM 73.7°F23.2°C 47.2°F8.4°C 39% 15.0 mph SW24.1 kmh SW 15.0 mph24.1 kmh 29.78 in1008.5 mb 0.00 in0.0 mm 0.00 in/hr0.0 mm/hr 0.00 in0.0 mm
12:20 PM 74.3°F23.5°C 48.4°F9.1°C 40% 5.8 mph SSW9.3 kmh SSW 10.4 mph16.7 kmh 29.77 in1008.1 mb 0.00 in0.0 mm 0.00 in/hr0.0 mm/hr 0.00 in0.0 mm
12:30 PM 73.0°F22.8°C 48.5°F9.2°C 42% 10.4 mph S16.7 kmh S 16.1 mph25.9 kmh 29.77 in1008.1 mb 0.00 in0.0 mm 0.00 in/hr0.0 mm/hr 0.00 in0.0 mm
12:40 PM 76.4°F24.7°C 50.3°F10.2°C 40% 12.7 mph SSW20.4 kmh SSW 18.4 mph29.6 kmh 29.77 in1008.1 mb 0.00 in0.0 mm 0.00 in/hr0.0 mm/hr 0.00 in0.0 mm
12:50 PM 74.7°F23.7°C 48.1°F8.9°C 39% 11.5 mph SW18.5 kmh SW 17.3 mph27.8 kmh 29.77 in1008.1 mb 0.00 in0.0 mm 0.00 in/hr0.0 mm/hr 0.00 in0.0 mm
01:00 PM 75.3°F24.1°C 49.3°F9.6°C 40% 9.2 mph SSW14.8 kmh SSW 16.1 mph25.9 kmh 29.77 in1008.1 mb 0.00 in0.0 mm 0.00 in/hr0.0 mm/hr 0.00 in0.0 mm
01:10 PM 74.7°F23.7°C 49.5°F9.7°C 41% 5.8 mph SSW9.3 kmh SSW 17.3 mph27.8 kmh 29.77 in1008.1 mb 0.00 in0.0 mm 0.00 in/hr0.0 mm/hr 0.00 in0.0 mm
01:20 PM 73.3°F22.9°C 47.5°F8.6°C 40% 10.4 mph SW16.7 kmh SW 11.5 mph18.5 kmh 29.77 in1008.1 mb 0.00 in0.0 mm 0.00 in/hr0.0 mm/hr 0.00 in0.0 mm
01:30 PM 68.5°F20.3°C 51.2°F10.7°C 54% 16.1 mph S25.9 kmh S 21.9 mph35.2 kmh 29.80 in1009.1 mb 0.00 in0.0 mm 0.00 in/hr0.0 mm/hr 0.00 in0.0 mm
01:40 PM 62.0°F16.7°C 52.1°F11.2°C 70% 15.0 mph S24.1 kmh S 20.7 mph33.3 kmh 29.82 in1009.8 mb 0.00 in0.0 mm 0.00 in/hr0.0 mm/hr 0.00 in0.0 mm
01:50 PM 60.9°F16.1°C 52.5°F11.4°C 74% 15.0 mph S24.1 kmh S 15.0 mph24.1 kmh 29.82 in1009.8 mb 0.00 in0.0 mm 0.00 in/hr0.0 mm/hr 0.00 in0.0 mm
02:00 PM 59.3°F15.2°C 51.7°F10.9°C 76% 11.5 mph S18.5 kmh S 19.6 mph31.5 kmh 29.84 in1010.5 mb 0.00 in0.0 mm 0.00 in/hr0.0 mm/hr 0.00 in0.0 mm
02:10 PM 58.5°F14.7°C 51.3°F10.7°C 77% 8.1 mph S13.0 kmh S 16.1 mph25.9 kmh 29.84 in1010.5 mb 0.01 in0.3 mm 0.06 in/hr1.5 mm/hr 0.01 in0.3 mm
02:20 PM 57.5°F14.2°C 50.3°F10.2°C 77% 4.6 mph SSW7.4 kmh SSW 9.2 mph14.8 kmh 29.84 in1010.5 mb 0.07 in1.8 mm 0.42 in/hr10.7 mm/hr 0.07 in1.8 mm
02:30 PM 57.2°F14.0°C 49.7°F9.8°C 76% 6.9 mph SSW11.1 kmh SSW 13.8 mph22.2 kmh 29.84 in1010.5 mb 0.07 in1.8 mm 0.42 in/hr10.7 mm/hr 0.13 in3.3 mm
02:40 PM 57.1°F13.9°C 49.6°F9.8°C 76% 5.8 mph S9.3 kmh S 10.4 mph16.7 kmh 29.85 in1010.8 mb 0.05 in1.3 mm 0.30 in/hr7.6 mm/hr 0.17 in4.3 mm
02:50 PM 57.2°F14.0°C 49.7°F9.8°C 76% 6.9 mph SSW11.1 kmh SSW 8.1 mph13.0 kmh 29.85 in1010.8 mb 0.02 in0.5 mm 0.12 in/hr3.0 mm/hr 0.19 in4.8 mm
03:00 PM 57.6°F14.2°C 50.1°F10.1°C 76% Calm Calm -- 29.86 in1011.2 mb 0.00 in0.0 mm 0.00 in/hr0.0 mm/hr 0.19 in4.8 mm
03:10 PM 58.5°F14.7°C 50.9°F10.5°C 76% 5.8 mph SW9.3 kmh SW 12.7 mph20.4 kmh 29.86 in1011.2 mb 0.01 in0.3 mm 0.06 in/hr1.5 mm/hr 0.20 in5.1 mm
03:20 PM 59.0°F15.0°C 51.4°F10.8°C 76% 5.8 mph SW9.3 kmh SW 8.1 mph13.0 kmh 29.86 in1011.2 mb 0.00 in0.0 mm 0.00 in/hr0.0 mm/hr 0.20 in5.1 mm
03:30 PM 59.2°F15.1°C 51.6°F10.9°C 76% 4.6 mph SW7.4 kmh SW 5.8 mph9.3 kmh 29.86 in1011.2 mb 0.00 in0.0 mm 0.00 in/hr0.0 mm/hr 0.20 in5.1 mm
03:40 PM 59.9°F15.5°C 52.3°F11.3°C 76% 6.9 mph SW11.1 kmh SW 11.5 mph18.5 kmh 29.86 in1011.2 mb 0.00 in0.0 mm 0.00 in/hr0.0 mm/hr 0.20 in5.1 mm
03:50 PM 62.0°F16.7°C 54.3°F12.4°C 76% 6.9 mph SW11.1 kmh SW 10.4 mph16.7 kmh 29.86 in1011.2 mb 0.00 in0.0 mm 0.00 in/hr0.0 mm/hr 0.20 in5.1 mm
04:00 PM 62.1°F16.7°C 54.5°F12.5°C 76% 5.8 mph SSW9.3 kmh SSW 8.1 mph13.0 kmh 29.86 in1011.2 mb 0.00 in0.0 mm 0.00 in/hr0.0 mm/hr 0.20 in5.1 mm
04:10 PM 64.0°F17.8°C 56.6°F13.7°C 77% 6.9 mph S11.1 kmh S 12.7 mph20.4 kmh 29.86 in1011.2 mb 0.00 in0.0 mm 0.00 in/hr0.0 mm/hr 0.20 in5.1 mm
04:20 PM 62.9°F17.2°C 54.8°F12.7°C 75% 8.1 mph S13.0 kmh S 12.7 mph20.4 kmh 29.86 in1011.2 mb 0.00 in0.0 mm 0.00 in/hr0.0 mm/hr 0.20 in5.1 mm
04:30 PM 62.0°F16.7°C 53.3°F11.8°C 73% 6.9 mph S11.1 kmh S 8.1 mph13.0 kmh 29.86 in1011.2 mb 0.00 in0.0 mm 0.00 in/hr0.0 mm/hr 0.20 in5.1 mm
04:40 PM 61.1°F16.2°C 53.1°F11.7°C 75% 6.9 mph SSE11.1 kmh SSE 10.4 mph16.7 kmh 29.87 in1011.5 mb 0.00 in0.0 mm 0.00 in/hr0.0 mm/hr 0.20 in5.1 mm
04:50 PM 60.3°F15.7°C 53.0°F11.7°C 77% 2.3 mph SSW3.7 kmh SSW 3.5 mph5.6 kmh 29.88 in1011.9 mb 0.01 in0.3 mm 0.06 in/hr1.5 mm/hr 0.21 in5.3 mm
05:00 PM 61.1°F16.2°C 53.8°F12.1°C 77% Calm Calm 2.3 mph3.7 kmh 29.88 in1011.9 mb 0.00 in0.0 mm 0.00 in/hr0.0 mm/hr 0.21 in5.3 mm
05:10 PM 61.2°F16.2°C 53.9°F12.2°C 77% 1.2 mph S1.9 kmh S 6.9 mph11.1 kmh 29.89 in1012.2 mb 0.00 in0.0 mm 0.00 in/hr0.0 mm/hr 0.21 in5.3 mm
05:20 PM 61.6°F16.4°C 54.0°F12.2°C 76% Calm Calm -- 29.89 in1012.2 mb 0.00 in0.0 mm 0.00 in/hr0.0 mm/hr 0.21 in5.3 mm
05:30 PM 62.0°F16.7°C 54.0°F12.2°C 75% 3.5 mph SSE5.6 kmh SSE 6.9 mph11.1 kmh 29.89 in1012.2 mb 0.00 in0.0 mm 0.00 in/hr0.0 mm/hr 0.21 in5.3 mm
05:40 PM 62.6°F17.0°C 53.8°F12.1°C 73% 4.6 mph SSW7.4 kmh SSW 8.1 mph13.0 kmh 29.89 in1012.2 mb 0.00 in0.0 mm 0.00 in/hr0.0 mm/hr 0.21 in5.3 mm
05:50 PM 62.3°F16.8°C 52.8°F11.6°C 71% 3.5 mph S5.6 kmh S 4.6 mph7.4 kmh 29.90 in1012.5 mb 0.00 in0.0 mm 0.00 in/hr0.0 mm/hr 0.21 in5.3 mm
06:00 PM 61.8°F16.6°C 51.5°F10.8°C 69% Calm Calm -- 29.91 in1012.9 mb 0.00 in0.0 mm 0.00 in/hr0.0 mm/hr 0.21 in5.3 mm
06:10 PM 61.8°F16.6°C 51.5°F10.8°C 69% Calm Calm 5.8 mph9.3 kmh 29.92 in1013.2 mb 0.00 in0.0 mm 0.00 in/hr0.0 mm/hr 0.21 in5.3 mm
06:20 PM 62.3°F16.8°C 52.0°F11.1°C 69% 3.5 mph S5.6 kmh S 6.9 mph11.1 kmh 29.92 in1013.2 mb 0.00 in0.0 mm 0.00 in/hr0.0 mm/hr 0.21 in5.3 mm
06:30 PM 61.7°F16.5°C 51.5°F10.8°C 69% 6.9 mph S11.1 kmh S 8.1 mph13.0 kmh 29.93 in1013.5 mb 0.00 in0.0 mm 0.00 in/hr0.0 mm/hr 0.21 in5.3 mm
06:40 PM 60.7°F15.9°C 50.5°F10.3°C 69% 3.5 mph SSE5.6 kmh SSE 4.6 mph7.4 kmh 29.93 in1013.5 mb 0.00 in0.0 mm 0.00 in/hr0.0 mm/hr 0.21 in5.3 mm
06:50 PM 61.1°F16.2°C 50.4°F10.2°C 68% Calm Calm -- 29.94 in1013.9 mb 0.01 in0.3 mm 0.06 in/hr1.5 mm/hr 0.22 in5.6 mm
07:00 PM 60.8°F16.0°C 49.4°F9.7°C 66% 3.5 mph S5.6 kmh S 9.2 mph14.8 kmh 29.94 in1013.9 mb 0.00 in0.0 mm 0.00 in/hr0.0 mm/hr 0.22 in5.6 mm
07:10 PM 60.5°F15.8°C 49.5°F9.7°C 67% Calm Calm 5.8 mph9.3 kmh 29.95 in1014.2 mb 0.00 in0.0 mm 0.00 in/hr0.0 mm/hr 0.22 in5.6 mm
07:20 PM 60.2°F15.7°C 48.4°F9.1°C 65% 1.2 mph SSE1.9 kmh SSE 10.4 mph16.7 kmh 29.95 in1014.2 mb 0.00 in0.0 mm 0.00 in/hr0.0 mm/hr 0.22 in5.6 mm
07:30 PM 59.6°F15.3°C 47.8°F8.8°C 65% Calm Calm -- 29.95 in1014.2 mb 0.00 in0.0 mm 0.00 in/hr0.0 mm/hr 0.22 in5.6 mm
07:40 PM 59.2°F15.1°C 47.8°F8.8°C 66% Calm Calm -- 29.96 in1014.6 mb 0.00 in0.0 mm 0.00 in/hr0.0 mm/hr 0.22 in5.6 mm
07:50 PM 58.7°F14.8°C 47.8°F8.8°C 67% 4.6 mph S7.4 kmh S 10.4 mph16.7 kmh 29.96 in1014.6 mb 0.00 in0.0 mm 0.00 in/hr0.0 mm/hr 0.22 in5.6 mm
08:00 PM 58.3°F14.6°C 47.8°F8.8°C 68% 4.6 mph S7.4 kmh S 4.6 mph7.4 kmh 29.97 in1014.9 mb 0.00 in0.0 mm 0.00 in/hr0.0 mm/hr 0.22 in5.6 mm
08:10 PM 58.1°F14.5°C 47.6°F8.7°C 68% 1.2 mph S1.9 kmh S 6.9 mph11.1 kmh 29.97 in1014.9 mb 0.00 in0.0 mm 0.00 in/hr0.0 mm/hr 0.22 in5.6 mm
08:20 PM 57.9°F14.4°C 47.8°F8.8°C 69% Calm Calm -- 29.98 in1015.2 mb 0.00 in0.0 mm 0.00 in/hr0.0 mm/hr 0.22 in5.6 mm
08:30 PM 57.7°F14.3°C 47.6°F8.7°C 69% Calm Calm -- 29.98 in1015.2 mb 0.00 in0.0 mm 0.00 in/hr0.0 mm/hr 0.22 in5.6 mm
08:40 PM 57.4°F14.1°C 47.3°F8.5°C 69% Calm Calm -- 29.99 in1015.6 mb 0.00 in0.0 mm 0.00 in/hr0.0 mm/hr 0.22 in5.6 mm
08:50 PM 57.0°F13.9°C 47.0°F8.3°C 69% Calm Calm -- 30.00 in1015.9 mb 0.00 in0.0 mm 0.00 in/hr0.0 mm/hr 0.22 in5.6 mm
09:00 PM 56.7°F13.7°C 47.0°F8.3°C 70% Calm Calm -- 30.00 in1015.9 mb 0.00 in0.0 mm 0.00 in/hr0.0 mm/hr 0.22 in5.6 mm
09:10 PM 56.4°F13.6°C 46.7°F8.2°C 70% Calm Calm -- 30.00 in1015.9 mb 0.00 in0.0 mm 0.00 in/hr0.0 mm/hr 0.22 in5.6 mm
09:20 PM 56.0°F13.3°C 46.7°F8.2°C 71% Calm Calm -- 30.00 in1015.9 mb 0.00 in0.0 mm 0.00 in/hr0.0 mm/hr 0.22 in5.6 mm
09:30 PM 55.6°F13.1°C 46.4°F8.0°C 71% Calm Calm -- 30.01 in1016.3 mb 0.00 in0.0 mm 0.00 in/hr0.0 mm/hr 0.22 in5.6 mm
09:40 PM 55.3°F12.9°C 46.4°F8.0°C 72% Calm Calm -- 30.01 in1016.3 mb 0.00 in0.0 mm 0.00 in/hr0.0 mm/hr 0.22 in5.6 mm
09:50 PM 55.0°F12.8°C 46.1°F7.8°C 72% 1.2 mph SW1.9 kmh SW 3.5 mph5.6 kmh 30.01 in1016.3 mb 0.00 in0.0 mm 0.00 in/hr0.0 mm/hr 0.22 in5.6 mm
10:00 PM 54.8°F12.7°C 46.3°F7.9°C 73% 1.2 mph SSW1.9 kmh SSW 4.6 mph7.4 kmh 30.01 in1016.3 mb 0.00 in0.0 mm 0.00 in/hr0.0 mm/hr 0.22 in5.6 mm
10:10 PM 54.7°F12.6°C 46.2°F7.9°C 73% 1.2 mph SSW1.9 kmh SSW 3.5 mph5.6 kmh 30.01 in1016.3 mb 0.00 in0.0 mm 0.00 in/hr0.0 mm/hr 0.22 in5.6 mm
10:20 PM 54.5°F12.5°C 46.0°F7.8°C 73% Calm Calm -- 30.01 in1016.3 mb 0.00 in0.0 mm 0.00 in/hr0.0 mm/hr 0.22 in5.6 mm
10:30 PM 54.3°F12.4°C 45.8°F7.7°C 73% Calm Calm -- 30.01 in1016.3 mb 0.00 in0.0 mm 0.00 in/hr0.0 mm/hr 0.22 in5.6 mm
10:40 PM 53.9°F12.2°C 45.5°F7.5°C 73% Calm Calm -- 30.01 in1016.3 mb 0.00 in0.0 mm 0.00 in/hr0.0 mm/hr 0.22 in5.6 mm
10:50 PM 53.6°F12.0°C 45.5°F7.5°C 74% Calm Calm -- 30.01 in1016.3 mb 0.00 in0.0 mm 0.00 in/hr0.0 mm/hr 0.22 in5.6 mm
11:00 PM 53.5°F11.9°C 45.4°F7.4°C 74% 1.2 mph SSW1.9 kmh SSW 4.6 mph7.4 kmh 30.01 in1016.3 mb 0.00 in0.0 mm 0.00 in/hr0.0 mm/hr 0.25 in6.4 mm
11:10 PM 53.5°F11.9°C 45.8°F7.7°C 75% 2.3 mph S3.7 kmh S 4.6 mph7.4 kmh 30.02 in1016.6 mb 0.00 in0.0 mm 0.00 in/hr0.0 mm/hr 0.25 in6.4 mm
11:20 PM 53.3°F11.8°C 45.6°F7.6°C 75% Calm Calm 2.3 mph3.7 kmh 30.02 in1016.6 mb 0.00 in0.0 mm 0.00 in/hr0.0 mm/hr 0.25 in6.4 mm
11:30 PM 53.1°F11.7°C 45.4°F7.4°C 75% Calm Calm -- 30.02 in1016.6 mb 0.00 in0.0 mm 0.00 in/hr0.0 mm/hr 0.25 in6.4 mm
11:40 PM 52.9°F11.6°C 45.5°F7.5°C 76% Calm Calm -- 30.02 in1016.6 mb 0.00 in0.0 mm 0.00 in/hr0.0 mm/hr 0.25 in6.4 mm
11:50 PM 52.6°F11.4°C 45.2°F7.3°C 76% Calm Calm -- 30.02 in1016.6 mb 0.00 in0.0 mm 0.00 in/hr0.0 mm/hr 0.25 in6.4 mm